sensor_id;sensor_type;location;lat;lon;timestamp;P1;durP1;ratioP1;P2;durP2;ratioP2
75038;SDS011;63609;49.992;14.512;2023-04-24T00:03:30;7.03;;;4.10;;
75038;SDS011;63609;49.992;14.512;2023-04-24T00:05:57;6.40;;;4.68;;
75038;SDS011;63609;49.992;14.512;2023-04-24T00:08:25;6.75;;;4.40;;
75038;SDS011;63609;49.992;14.512;2023-04-24T00:10:52;11.80;;;4.30;;
75038;SDS011;63609;49.992;14.512;2023-04-24T00:13:19;7.90;;;4.82;;
75038;SDS011;63609;49.992;14.512;2023-04-24T00:15:46;7.78;;;4.40;;
75038;SDS011;63609;49.992;14.512;2023-04-24T00:18:13;8.07;;;4.78;;
75038;SDS011;63609;49.992;14.512;2023-04-24T00:20:40;7.10;;;4.20;;
75038;SDS011;63609;49.992;14.512;2023-04-24T00:23:07;7.57;;;3.85;;
75038;SDS011;63609;49.992;14.512;2023-04-24T00:25:34;6.57;;;3.78;;
75038;SDS011;63609;49.992;14.512;2023-04-24T00:28:01;8.02;;;4.63;;
75038;SDS011;63609;49.992;14.512;2023-04-24T00:30:28;7.05;;;3.78;;
75038;SDS011;63609;49.992;14.512;2023-04-24T00:32:55;8.07;;;3.63;;
75038;SDS011;63609;49.992;14.512;2023-04-24T00:35:23;6.90;;;3.40;;
75038;SDS011;63609;49.992;14.512;2023-04-24T00:37:50;5.60;;;2.88;;
75038;SDS011;63609;49.992;14.512;2023-04-24T00:40:17;4.25;;;2.60;;
75038;SDS011;63609;49.992;14.512;2023-04-24T00:42:44;4.72;;;2.72;;
75038;SDS011;63609;49.992;14.512;2023-04-24T00:45:12;4.38;;;2.80;;
75038;SDS011;63609;49.992;14.512;2023-04-24T00:47:39;4.95;;;2.20;;
75038;SDS011;63609;49.992;14.512;2023-04-24T00:50:08;2.85;;;1.80;;
75038;SDS011;63609;49.992;14.512;2023-04-24T00:52:35;3.47;;;1.65;;
75038;SDS011;63609;49.992;14.512;2023-04-24T00:55:02;2.65;;;1.10;;
75038;SDS011;63609;49.992;14.512;2023-04-24T00:57:30;1.95;;;1.20;;
75038;SDS011;63609;49.992;14.512;2023-04-24T00:59:57;2.22;;;1.00;;
75038;SDS011;63609;49.992;14.512;2023-04-24T01:02:24;2.55;;;1.40;;
75038;SDS011;63609;49.992;14.512;2023-04-24T01:04:51;3.03;;;1.38;;
75038;SDS011;63609;49.992;14.512;2023-04-24T01:07:19;2.35;;;1.27;;
75038;SDS011;63609;49.992;14.512;2023-04-24T01:09:50;3.13;;;1.40;;
75038;SDS011;63609;49.992;14.512;2023-04-24T01:12:19;3.42;;;1.50;;
75038;SDS011;63609;49.992;14.512;2023-04-24T01:14:46;2.10;;;1.10;;
75038;SDS011;63609;49.992;14.512;2023-04-24T01:17:14;2.65;;;1.30;;
75038;SDS011;63609;49.992;14.512;2023-04-24T01:19:41;2.20;;;1.00;;
75038;SDS011;63609;49.992;14.512;2023-04-24T01:22:12;2.53;;;1.10;;
75038;SDS011;63609;49.992;14.512;2023-04-24T01:24:41;2.15;;;1.00;;
75038;SDS011;63609;49.992;14.512;2023-04-24T01:27:10;2.17;;;1.23;;
75038;SDS011;63609;49.992;14.512;2023-04-24T01:29:38;2.00;;;0.95;;
75038;SDS011;63609;49.992;14.512;2023-04-24T01:32:05;2.20;;;1.00;;
75038;SDS011;63609;49.992;14.512;2023-04-24T01:34:33;1.70;;;1.00;;
75038;SDS011;63609;49.992;14.512;2023-04-24T01:37:01;2.00;;;1.20;;
75038;SDS011;63609;49.992;14.512;2023-04-24T01:39:31;2.45;;;1.20;;
75038;SDS011;63609;49.992;14.512;2023-04-24T01:42:00;2.25;;;1.20;;
75038;SDS011;63609;49.992;14.512;2023-04-24T01:44:28;1.70;;;1.20;;
75038;SDS011;63609;49.992;14.512;2023-04-24T01:46:56;2.45;;;1.35;;
75038;SDS011;63609;49.992;14.512;2023-04-24T01:49:23;2.17;;;1.30;;
75038;SDS011;63609;49.992;14.512;2023-04-24T01:51:50;2.63;;;1.40;;
75038;SDS011;63609;49.992;14.512;2023-04-24T01:54:17;3.17;;;1.40;;
75038;SDS011;63609;49.992;14.512;2023-04-24T01:56:45;2.50;;;1.20;;
75038;SDS011;63609;49.992;14.512;2023-04-24T01:59:12;3.78;;;1.30;;
75038;SDS011;63609;49.992;14.512;2023-04-24T02:01:39;2.50;;;1.40;;
75038;SDS011;63609;49.992;14.512;2023-04-24T02:04:07;2.30;;;1.08;;
75038;SDS011;63609;49.992;14.512;2023-04-24T02:06:34;2.20;;;0.95;;
75038;SDS011;63609;49.992;14.512;2023-04-24T02:09:02;3.28;;;1.40;;
75038;SDS011;63609;49.992;14.512;2023-04-24T02:11:30;2.72;;;1.10;;
75038;SDS011;63609;49.992;14.512;2023-04-24T02:13:57;2.33;;;1.17;;
75038;SDS011;63609;49.992;14.512;2023-04-24T02:16:24;4.38;;;1.10;;
75038;SDS011;63609;49.992;14.512;2023-04-24T02:18:51;2.08;;;1.00;;
75038;SDS011;63609;49.992;14.512;2023-04-24T02:21:18;2.30;;;1.17;;
75038;SDS011;63609;49.992;14.512;2023-04-24T02:23:45;2.40;;;1.02;;
75038;SDS011;63609;49.992;14.512;2023-04-24T02:26:12;3.25;;;1.20;;
75038;SDS011;63609;49.992;14.512;2023-04-24T02:28:39;2.88;;;1.50;;
75038;SDS011;63609;49.992;14.512;2023-04-24T02:31:06;1.88;;;0.98;;
75038;SDS011;63609;49.992;14.512;2023-04-24T02:33:33;2.17;;;1.20;;
75038;SDS011;63609;49.992;14.512;2023-04-24T02:36:01;3.35;;;1.38;;
75038;SDS011;63609;49.992;14.512;2023-04-24T02:38:29;1.88;;;1.27;;
75038;SDS011;63609;49.992;14.512;2023-04-24T02:40:56;3.05;;;1.23;;
75038;SDS011;63609;49.992;14.512;2023-04-24T02:43:25;2.97;;;1.20;;
75038;SDS011;63609;49.992;14.512;2023-04-24T02:45:52;2.65;;;1.30;;
75038;SDS011;63609;49.992;14.512;2023-04-24T02:48:19;2.38;;;1.40;;
75038;SDS011;63609;49.992;14.512;2023-04-24T02:50:47;3.33;;;1.10;;
75038;SDS011;63609;49.992;14.512;2023-04-24T02:53:14;2.50;;;1.23;;
75038;SDS011;63609;49.992;14.512;2023-04-24T02:55:41;2.95;;;1.38;;
75038;SDS011;63609;49.992;14.512;2023-04-24T02:58:09;2.88;;;1.40;;
75038;SDS011;63609;49.992;14.512;2023-04-24T03:00:39;2.60;;;1.23;;
75038;SDS011;63609;49.992;14.512;2023-04-24T03:03:06;3.33;;;1.48;;
75038;SDS011;63609;49.992;14.512;2023-04-24T03:05:33;3.30;;;1.80;;
75038;SDS011;63609;49.992;14.512;2023-04-24T03:08:01;3.63;;;2.10;;
75038;SDS011;63609;49.992;14.512;2023-04-24T03:10:27;4.47;;;1.95;;
75038;SDS011;63609;49.992;14.512;2023-04-24T03:12:54;4.70;;;2.67;;
75038;SDS011;63609;49.992;14.512;2023-04-24T03:15:21;4.88;;;2.50;;
75038;SDS011;63609;49.992;14.512;2023-04-24T03:17:48;3.65;;;2.25;;
75038;SDS011;63609;49.992;14.512;2023-04-24T03:20:15;3.05;;;1.70;;
75038;SDS011;63609;49.992;14.512;2023-04-24T03:22:43;3.75;;;1.60;;
75038;SDS011;63609;49.992;14.512;2023-04-24T03:25:11;2.75;;;1.60;;
75038;SDS011;63609;49.992;14.512;2023-04-24T03:27:38;2.58;;;1.60;;
75038;SDS011;63609;49.992;14.512;2023-04-24T03:30:34;3.00;;;1.60;;
75038;SDS011;63609;49.992;14.512;2023-04-24T03:33:02;4.78;;;1.80;;
75038;SDS011;63609;49.992;14.512;2023-04-24T03:35:33;3.58;;;1.95;;
75038;SDS011;63609;49.992;14.512;2023-04-24T03:38:03;2.47;;;1.42;;
75038;SDS011;63609;49.992;14.512;2023-04-24T03:40:53;2.88;;;1.55;;
75038;SDS011;63609;49.992;14.512;2023-04-24T03:43:37;2.30;;;1.45;;
75038;SDS011;63609;49.992;14.512;2023-04-24T03:46:05;3.55;;;1.90;;
75038;SDS011;63609;49.992;14.512;2023-04-24T03:48:37;3.35;;;1.77;;
75038;SDS011;63609;49.992;14.512;2023-04-24T03:51:06;3.28;;;1.95;;
75038;SDS011;63609;49.992;14.512;2023-04-24T03:53:35;3.30;;;1.70;;
75038;SDS011;63609;49.992;14.512;2023-04-24T03:56:03;2.58;;;1.42;;
75038;SDS011;63609;49.992;14.512;2023-04-24T03:58:31;4.00;;;1.65;;
75038;SDS011;63609;49.992;14.512;2023-04-24T04:00:59;5.18;;;2.13;;
75038;SDS011;63609;49.992;14.512;2023-04-24T04:03:44;2.95;;;1.20;;
75038;SDS011;63609;49.992;14.512;2023-04-24T04:06:15;5.68;;;1.50;;
75038;SDS011;63609;49.992;14.512;2023-04-24T04:08:43;2.88;;;1.60;;
75038;SDS011;63609;49.992;14.512;2023-04-24T04:11:10;3.60;;;1.92;;
75038;SDS011;63609;49.992;14.512;2023-04-24T04:13:37;3.05;;;1.40;;
75038;SDS011;63609;49.992;14.512;2023-04-24T04:16:04;2.80;;;1.50;;
75038;SDS011;63609;49.992;14.512;2023-04-24T04:18:31;4.03;;;1.63;;
75038;SDS011;63609;49.992;14.512;2023-04-24T04:20:59;3.15;;;1.55;;
75038;SDS011;63609;49.992;14.512;2023-04-24T04:23:27;2.30;;;1.40;;
75038;SDS011;63609;49.992;14.512;2023-04-24T04:26:17;2.67;;;1.52;;
75038;SDS011;63609;49.992;14.512;2023-04-24T04:29:03;2.78;;;1.77;;
75038;SDS011;63609;49.992;14.512;2023-04-24T04:31:32;3.35;;;1.60;;
75038;SDS011;63609;49.992;14.512;2023-04-24T04:34:04;3.10;;;1.95;;
75038;SDS011;63609;49.992;14.512;2023-04-24T04:36:32;3.58;;;2.00;;
75038;SDS011;63609;49.992;14.512;2023-04-24T04:39:23;3.38;;;1.70;;
75038;SDS011;63609;49.992;14.512;2023-04-24T04:41:55;3.17;;;1.73;;
75038;SDS011;63609;49.992;14.512;2023-04-24T04:44:28;3.70;;;1.70;;
75038;SDS011;63609;49.992;14.512;2023-04-24T04:46:59;5.05;;;2.17;;
75038;SDS011;63609;49.992;14.512;2023-04-24T04:49:30;3.85;;;2.20;;
75038;SDS011;63609;49.992;14.512;2023-04-24T04:51:58;4.40;;;2.25;;
75038;SDS011;63609;49.992;14.512;2023-04-24T04:54:26;3.63;;;1.95;;
75038;SDS011;63609;49.992;14.512;2023-04-24T04:56:53;3.58;;;2.03;;
75038;SDS011;63609;49.992;14.512;2023-04-24T04:59:21;4.40;;;2.30;;
75038;SDS011;63609;49.992;14.512;2023-04-24T05:01:53;4.00;;;2.15;;
75038;SDS011;63609;49.992;14.512;2023-04-24T05:04:21;3.75;;;1.83;;
75038;SDS011;63609;49.992;14.512;2023-04-24T05:06:48;3.85;;;1.88;;
75038;SDS011;63609;49.992;14.512;2023-04-24T05:09:15;5.10;;;2.13;;
75038;SDS011;63609;49.992;14.512;2023-04-24T05:11:55;3.42;;;1.90;;
75038;SDS011;63609;49.992;14.512;2023-04-24T05:14:23;4.50;;;2.13;;
75038;SDS011;63609;49.992;14.512;2023-04-24T05:16:51;3.70;;;2.20;;
75038;SDS011;63609;49.992;14.512;2023-04-24T05:19:20;5.22;;;2.00;;
75038;SDS011;63609;49.992;14.512;2023-04-24T05:21:46;4.05;;;1.90;;
75038;SDS011;63609;49.992;14.512;2023-04-24T05:24:14;4.05;;;2.15;;
75038;SDS011;63609;49.992;14.512;2023-04-24T05:27:05;4.88;;;2.13;;
75038;SDS011;63609;49.992;14.512;2023-04-24T05:29:37;4.28;;;2.00;;
75038;SDS011;63609;49.992;14.512;2023-04-24T05:32:04;3.05;;;1.90;;
75038;SDS011;63609;49.992;14.512;2023-04-24T05:34:31;3.60;;;2.10;;
75038;SDS011;63609;49.992;14.512;2023-04-24T05:36:59;4.07;;;2.20;;
75038;SDS011;63609;49.992;14.512;2023-04-24T05:39:26;3.30;;;1.83;;
75038;SDS011;63609;49.992;14.512;2023-04-24T05:41:54;4.38;;;1.98;;
75038;SDS011;63609;49.992;14.512;2023-04-24T05:44:24;2.80;;;1.90;;
75038;SDS011;63609;49.992;14.512;2023-04-24T05:46:52;3.67;;;2.45;;
75038;SDS011;63609;49.992;14.512;2023-04-24T05:49:19;5.28;;;2.17;;
75038;SDS011;63609;49.992;14.512;2023-04-24T05:51:46;3.22;;;1.90;;
75038;SDS011;63609;49.992;14.512;2023-04-24T05:54:14;4.05;;;1.98;;
75038;SDS011;63609;49.992;14.512;2023-04-24T05:56:41;3.22;;;1.98;;
75038;SDS011;63609;49.992;14.512;2023-04-24T05:59:13;2.78;;;1.58;;
75038;SDS011;63609;49.992;14.512;2023-04-24T06:01:40;2.70;;;1.58;;
75038;SDS011;63609;49.992;14.512;2023-04-24T06:04:14;3.30;;;2.00;;
75038;SDS011;63609;49.992;14.512;2023-04-24T06:06:43;3.75;;;1.88;;
75038;SDS011;63609;49.992;14.512;2023-04-24T06:09:10;3.60;;;2.10;;
75038;SDS011;63609;49.992;14.512;2023-04-24T06:11:38;4.18;;;1.75;;
75038;SDS011;63609;49.992;14.512;2023-04-24T06:14:11;3.97;;;2.00;;
75038;SDS011;63609;49.992;14.512;2023-04-24T06:16:39;4.75;;;2.45;;
75038;SDS011;63609;49.992;14.512;2023-04-24T06:19:18;4.18;;;2.10;;
75038;SDS011;63609;49.992;14.512;2023-04-24T06:21:46;3.70;;;1.88;;
75038;SDS011;63609;49.992;14.512;2023-04-24T06:24:14;2.97;;;1.73;;
75038;SDS011;63609;49.992;14.512;2023-04-24T06:26:41;5.50;;;2.60;;
75038;SDS011;63609;49.992;14.512;2023-04-24T06:29:08;4.43;;;2.42;;
75038;SDS011;63609;49.992;14.512;2023-04-24T06:31:35;4.35;;;2.30;;
75038;SDS011;63609;49.992;14.512;2023-04-24T06:34:03;5.18;;;2.47;;
75038;SDS011;63609;49.992;14.512;2023-04-24T06:36:31;4.78;;;2.90;;
75038;SDS011;63609;49.992;14.512;2023-04-24T06:38:59;4.43;;;2.45;;
75038;SDS011;63609;49.992;14.512;2023-04-24T06:41:26;4.95;;;3.03;;
75038;SDS011;63609;49.992;14.512;2023-04-24T06:43:53;6.10;;;2.80;;
75038;SDS011;63609;49.992;14.512;2023-04-24T06:46:20;5.55;;;3.08;;
75038;SDS011;63609;49.992;14.512;2023-04-24T06:48:50;6.25;;;2.95;;
75038;SDS011;63609;49.992;14.512;2023-04-24T06:51:17;5.85;;;2.50;;
75038;SDS011;63609;49.992;14.512;2023-04-24T06:53:44;4.03;;;2.80;;
75038;SDS011;63609;49.992;14.512;2023-04-24T06:56:14;6.38;;;3.35;;
75038;SDS011;63609;49.992;14.512;2023-04-24T06:58:41;7.60;;;3.00;;
75038;SDS011;63609;49.992;14.512;2023-04-24T07:01:08;6.28;;;2.53;;
75038;SDS011;63609;49.992;14.512;2023-04-24T07:03:36;4.00;;;2.42;;
75038;SDS011;63609;49.992;14.512;2023-04-24T07:06:04;5.00;;;3.42;;
75038;SDS011;63609;49.992;14.512;2023-04-24T07:08:31;4.25;;;2.70;;
75038;SDS011;63609;49.992;14.512;2023-04-24T07:10:59;5.80;;;3.67;;
75038;SDS011;63609;49.992;14.512;2023-04-24T07:13:27;5.10;;;3.03;;
75038;SDS011;63609;49.992;14.512;2023-04-24T07:15:54;7.00;;;3.83;;
75038;SDS011;63609;49.992;14.512;2023-04-24T07:18:22;4.10;;;2.35;;
75038;SDS011;63609;49.992;14.512;2023-04-24T07:20:49;5.75;;;3.47;;
75038;SDS011;63609;49.992;14.512;2023-04-24T07:23:19;5.15;;;2.78;;
75038;SDS011;63609;49.992;14.512;2023-04-24T07:25:46;7.45;;;3.97;;
75038;SDS011;63609;49.992;14.512;2023-04-24T07:28:13;5.90;;;3.17;;
75038;SDS011;63609;49.992;14.512;2023-04-24T07:30:40;6.13;;;3.10;;
75038;SDS011;63609;49.992;14.512;2023-04-24T07:33:07;7.45;;;3.90;;
75038;SDS011;63609;49.992;14.512;2023-04-24T07:35:34;4.50;;;2.83;;
75038;SDS011;63609;49.992;14.512;2023-04-24T07:38:01;4.82;;;2.72;;
75038;SDS011;63609;49.992;14.512;2023-04-24T07:40:28;9.63;;;3.92;;
75038;SDS011;63609;49.992;14.512;2023-04-24T07:42:56;4.93;;;2.88;;
75038;SDS011;63609;49.992;14.512;2023-04-24T07:45:22;6.57;;;3.05;;
75038;SDS011;63609;49.992;14.512;2023-04-24T07:47:50;5.88;;;3.97;;
75038;SDS011;63609;49.992;14.512;2023-04-24T07:50:17;7.50;;;4.00;;
75038;SDS011;63609;49.992;14.512;2023-04-24T07:52:44;6.50;;;3.70;;
75038;SDS011;63609;49.992;14.512;2023-04-24T07:55:11;7.53;;;4.88;;
75038;SDS011;63609;49.992;14.512;2023-04-24T07:57:38;11.82;;;5.63;;
75038;SDS011;63609;49.992;14.512;2023-04-24T08:00:05;9.23;;;6.13;;
75038;SDS011;63609;49.992;14.512;2023-04-24T08:02:36;10.88;;;6.32;;
75038;SDS011;63609;49.992;14.512;2023-04-24T08:05:04;9.55;;;5.72;;
75038;SDS011;63609;49.992;14.512;2023-04-24T08:07:32;11.93;;;6.72;;
75038;SDS011;63609;49.992;14.512;2023-04-24T08:09:59;7.82;;;5.00;;
75038;SDS011;63609;49.992;14.512;2023-04-24T08:12:28;8.02;;;4.63;;
75038;SDS011;63609;49.992;14.512;2023-04-24T08:14:56;9.52;;;5.70;;
75038;SDS011;63609;49.992;14.512;2023-04-24T08:17:23;10.00;;;5.40;;
75038;SDS011;63609;49.992;14.512;2023-04-24T08:19:50;9.18;;;4.75;;
75038;SDS011;63609;49.992;14.512;2023-04-24T08:22:19;11.15;;;5.68;;
75038;SDS011;63609;49.992;14.512;2023-04-24T08:24:46;12.63;;;7.60;;
75038;SDS011;63609;49.992;14.512;2023-04-24T08:27:13;12.85;;;7.78;;
75038;SDS011;63609;49.992;14.512;2023-04-24T08:29:40;7.72;;;4.97;;
75038;SDS011;63609;49.992;14.512;2023-04-24T08:32:07;6.45;;;3.70;;
75038;SDS011;63609;49.992;14.512;2023-04-24T08:34:34;4.05;;;2.42;;
75038;SDS011;63609;49.992;14.512;2023-04-24T08:37:02;4.82;;;2.50;;
75038;SDS011;63609;49.992;14.512;2023-04-24T08:39:29;4.13;;;2.00;;
75038;SDS011;63609;49.992;14.512;2023-04-24T08:41:56;8.07;;;4.43;;
75038;SDS011;63609;49.992;14.512;2023-04-24T08:44:23;10.85;;;6.32;;
75038;SDS011;63609;49.992;14.512;2023-04-24T08:46:50;11.80;;;6.47;;
75038;SDS011;63609;49.992;14.512;2023-04-24T08:49:18;14.98;;;7.78;;
75038;SDS011;63609;49.992;14.512;2023-04-24T08:51:45;6.68;;;3.72;;
75038;SDS011;63609;49.992;14.512;2023-04-24T08:54:14;4.38;;;2.17;;
75038;SDS011;63609;49.992;14.512;2023-04-24T08:56:42;4.47;;;2.60;;
75038;SDS011;63609;49.992;14.512;2023-04-24T08:59:11;5.40;;;2.72;;
75038;SDS011;63609;49.992;14.512;2023-04-24T09:01:38;3.72;;;2.55;;
75038;SDS011;63609;49.992;14.512;2023-04-24T09:04:08;4.75;;;2.83;;
75038;SDS011;63609;49.992;14.512;2023-04-24T09:06:40;4.80;;;2.35;;
75038;SDS011;63609;49.992;14.512;2023-04-24T09:09:07;4.18;;;2.55;;
75038;SDS011;63609;49.992;14.512;2023-04-24T09:11:36;4.13;;;2.50;;
75038;SDS011;63609;49.992;14.512;2023-04-24T09:14:10;6.13;;;3.20;;
75038;SDS011;63609;49.992;14.512;2023-04-24T09:16:37;4.82;;;3.03;;
75038;SDS011;63609;49.992;14.512;2023-04-24T09:19:04;3.92;;;2.60;;
75038;SDS011;63609;49.992;14.512;2023-04-24T09:21:34;4.90;;;2.90;;
75038;SDS011;63609;49.992;14.512;2023-04-24T09:24:03;7.43;;;3.25;;
75038;SDS011;63609;49.992;14.512;2023-04-24T09:26:33;6.55;;;3.70;;
75038;SDS011;63609;49.992;14.512;2023-04-24T09:29:02;5.47;;;3.38;;
75038;SDS011;63609;49.992;14.512;2023-04-24T09:31:31;6.55;;;3.72;;
75038;SDS011;63609;49.992;14.512;2023-04-24T09:34:01;5.05;;;2.88;;
75038;SDS011;63609;49.992;14.512;2023-04-24T09:36:34;6.47;;;3.45;;
75038;SDS011;63609;49.992;14.512;2023-04-24T09:39:04;5.70;;;2.92;;
75038;SDS011;63609;49.992;14.512;2023-04-24T09:41:34;5.53;;;2.78;;
75038;SDS011;63609;49.992;14.512;2023-04-24T09:44:14;4.57;;;2.63;;
75038;SDS011;63609;49.992;14.512;2023-04-24T09:46:44;5.45;;;3.15;;
75038;SDS011;63609;49.992;14.512;2023-04-24T09:49:13;5.85;;;3.10;;
75038;SDS011;63609;49.992;14.512;2023-04-24T09:51:43;5.60;;;3.10;;
75038;SDS011;63609;49.992;14.512;2023-04-24T09:54:15;5.63;;;2.78;;
75038;SDS011;63609;49.992;14.512;2023-04-24T09:56:44;5.05;;;3.15;;
75038;SDS011;63609;49.992;14.512;2023-04-24T09:59:16;5.47;;;3.25;;
75038;SDS011;63609;49.992;14.512;2023-04-24T10:01:44;4.53;;;2.63;;
75038;SDS011;63609;49.992;14.512;2023-04-24T10:04:19;4.55;;;2.67;;
75038;SDS011;63609;49.992;14.512;2023-04-24T10:06:48;6.25;;;2.90;;
75038;SDS011;63609;49.992;14.512;2023-04-24T10:09:17;5.55;;;3.10;;
75038;SDS011;63609;49.992;14.512;2023-04-24T10:11:46;5.45;;;2.92;;
75038;SDS011;63609;49.992;14.512;2023-04-24T10:14:18;4.72;;;3.00;;
75038;SDS011;63609;49.992;14.512;2023-04-24T10:16:47;2.78;;;1.55;;
75038;SDS011;63609;49.992;14.512;2023-04-24T10:19:15;4.45;;;1.70;;
75038;SDS011;63609;49.992;14.512;2023-04-24T10:21:43;2.95;;;2.10;;
75038;SDS011;63609;49.992;14.512;2023-04-24T10:24:13;2.42;;;1.67;;
75038;SDS011;63609;49.992;14.512;2023-04-24T10:26:44;3.65;;;1.80;;
75038;SDS011;63609;49.992;14.512;2023-04-24T10:29:13;4.15;;;1.80;;
75038;SDS011;63609;49.992;14.512;2023-04-24T10:31:42;3.85;;;1.55;;
75038;SDS011;63609;49.992;14.512;2023-04-24T10:34:12;4.70;;;2.28;;
75038;SDS011;63609;49.992;14.512;2023-04-24T10:36:41;3.72;;;2.03;;
75038;SDS011;63609;49.992;14.512;2023-04-24T10:39:12;3.53;;;1.70;;
75038;SDS011;63609;49.992;14.512;2023-04-24T10:41:44;3.25;;;1.92;;
75038;SDS011;63609;49.992;14.512;2023-04-24T10:44:13;2.97;;;1.58;;
75038;SDS011;63609;49.992;14.512;2023-04-24T10:46:45;3.00;;;1.67;;
75038;SDS011;63609;49.992;14.512;2023-04-24T10:49:14;4.03;;;1.83;;
75038;SDS011;63609;49.992;14.512;2023-04-24T10:54:22;2.92;;;1.52;;
75038;SDS011;63609;49.992;14.512;2023-04-24T10:57:25;2.20;;;1.50;;
75038;SDS011;63609;49.992;14.512;2023-04-24T10:59:47;3.25;;;1.58;;
75038;SDS011;63609;49.992;14.512;2023-04-24T11:02:14;2.55;;;1.27;;
75038;SDS011;63609;49.992;14.512;2023-04-24T11:04:42;2.42;;;1.20;;
75038;SDS011;63609;49.992;14.512;2023-04-24T11:07:10;1.88;;;1.10;;
75038;SDS011;63609;49.992;14.512;2023-04-24T11:09:38;2.60;;;1.27;;
75038;SDS011;63609;49.992;14.512;2023-04-24T11:12:08;4.18;;;1.10;;
75038;SDS011;63609;49.992;14.512;2023-04-24T11:17:28;4.25;;;1.38;;
75038;SDS011;63609;49.992;14.512;2023-04-24T11:20:04;2.88;;;1.00;;
75038;SDS011;63609;49.992;14.512;2023-04-24T11:22:53;2.35;;;0.98;;
75038;SDS011;63609;49.992;14.512;2023-04-24T11:25:21;2.72;;;1.10;;
75038;SDS011;63609;49.992;14.512;2023-04-24T11:27:49;1.95;;;1.00;;
75038;SDS011;63609;49.992;14.512;2023-04-24T11:30:20;2.17;;;0.90;;
75038;SDS011;63609;49.992;14.512;2023-04-24T11:32:47;1.63;;;0.90;;
75038;SDS011;63609;49.992;14.512;2023-04-24T11:35:20;1.85;;;1.00;;
75038;SDS011;63609;49.992;14.512;2023-04-24T11:37:52;1.88;;;1.08;;
75038;SDS011;63609;49.992;14.512;2023-04-24T11:40:39;3.05;;;1.10;;
75038;SDS011;63609;49.992;14.512;2023-04-24T11:43:07;4.15;;;1.10;;
75038;SDS011;63609;49.992;14.512;2023-04-24T11:45:35;3.55;;;1.20;;
75038;SDS011;63609;49.992;14.512;2023-04-24T11:48:02;3.88;;;1.25;;
75038;SDS011;63609;49.992;14.512;2023-04-24T11:50:30;2.13;;;0.95;;
75038;SDS011;63609;49.992;14.512;2023-04-24T11:52:57;2.47;;;1.00;;
75038;SDS011;63609;49.992;14.512;2023-04-24T11:55:25;2.45;;;1.10;;
75038;SDS011;63609;49.992;14.512;2023-04-24T11:57:54;2.25;;;1.05;;
75038;SDS011;63609;49.992;14.512;2023-04-24T12:00:24;2.42;;;1.23;;
75038;SDS011;63609;49.992;14.512;2023-04-24T12:03:09;4.10;;;1.10;;
75038;SDS011;63609;49.992;14.512;2023-04-24T12:05:38;2.58;;;0.95;;
75038;SDS011;63609;49.992;14.512;2023-04-24T12:08:06;3.45;;;0.80;;
75038;SDS011;63609;49.992;14.512;2023-04-24T12:10:33;3.10;;;0.90;;
75038;SDS011;63609;49.992;14.512;2023-04-24T12:13:01;2.97;;;0.90;;
75038;SDS011;63609;49.992;14.512;2023-04-24T12:15:30;2.55;;;0.80;;
75038;SDS011;63609;49.992;14.512;2023-04-24T12:17:57;2.90;;;1.13;;
75038;SDS011;63609;49.992;14.512;2023-04-24T12:20:27;2.28;;;0.77;;
75038;SDS011;63609;49.992;14.512;2023-04-24T12:22:59;1.55;;;0.75;;
75038;SDS011;63609;49.992;14.512;2023-04-24T12:25:32;1.63;;;0.70;;
75038;SDS011;63609;49.992;14.512;2023-04-24T12:31:37;1.20;;;0.50;;
75038;SDS011;63609;49.992;14.512;2023-04-24T12:34:44;2.70;;;0.65;;
75038;SDS011;63609;49.992;14.512;2023-04-24T12:37:11;3.55;;;0.90;;
75038;SDS011;63609;49.992;14.512;2023-04-24T12:39:44;3.60;;;0.80;;
75038;SDS011;63609;49.992;14.512;2023-04-24T12:42:26;1.80;;;0.90;;
75038;SDS011;63609;49.992;14.512;2023-04-24T12:45:02;1.75;;;0.73;;
75038;SDS011;63609;49.992;14.512;2023-04-24T12:47:34;1.15;;;0.65;;
75038;SDS011;63609;49.992;14.512;2023-04-24T12:50:01;1.95;;;0.90;;
75038;SDS011;63609;49.992;14.512;2023-04-24T12:52:29;2.53;;;1.13;;
75038;SDS011;63609;49.992;14.512;2023-04-24T12:54:57;3.35;;;1.20;;
75038;SDS011;63609;49.992;14.512;2023-04-24T12:57:27;3.05;;;1.17;;
75038;SDS011;63609;49.992;14.512;2023-04-24T12:59:55;2.58;;;1.02;;
75038;SDS011;63609;49.992;14.512;2023-04-24T13:02:24;4.10;;;1.92;;
75038;SDS011;63609;49.992;14.512;2023-04-24T13:04:52;2.05;;;1.20;;
75038;SDS011;63609;49.992;14.512;2023-04-24T13:07:20;2.33;;;1.73;;
75038;SDS011;63609;49.992;14.512;2023-04-24T13:09:49;3.13;;;1.48;;
75038;SDS011;63609;49.992;14.512;2023-04-24T13:12:17;11.15;;;2.05;;
75038;SDS011;63609;49.992;14.512;2023-04-24T13:14:45;2.88;;;1.20;;
75038;SDS011;63609;49.992;14.512;2023-04-24T13:17:12;3.58;;;1.30;;
75038;SDS011;63609;49.992;14.512;2023-04-24T13:19:41;3.63;;;1.83;;
75038;SDS011;63609;49.992;14.512;2023-04-24T13:22:10;2.90;;;1.67;;
75038;SDS011;63609;49.992;14.512;2023-04-24T13:24:38;3.72;;;1.65;;
75038;SDS011;63609;49.992;14.512;2023-04-24T13:27:08;3.13;;;1.35;;
75038;SDS011;63609;49.992;14.512;2023-04-24T13:29:36;3.60;;;1.67;;
75038;SDS011;63609;49.992;14.512;2023-04-24T13:32:03;4.05;;;1.95;;
75038;SDS011;63609;49.992;14.512;2023-04-24T13:34:31;3.70;;;1.48;;
75038;SDS011;63609;49.992;14.512;2023-04-24T13:37:02;2.53;;;1.63;;
75038;SDS011;63609;49.992;14.512;2023-04-24T13:39:34;5.28;;;1.80;;
75038;SDS011;63609;49.992;14.512;2023-04-24T13:42:02;2.83;;;1.55;;
75038;SDS011;63609;49.992;14.512;2023-04-24T13:44:30;3.47;;;2.08;;
75038;SDS011;63609;49.992;14.512;2023-04-24T13:46:58;3.17;;;1.73;;
75038;SDS011;63609;49.992;14.512;2023-04-24T13:49:26;2.20;;;1.23;;
75038;SDS011;63609;49.992;14.512;2023-04-24T13:51:54;2.50;;;1.42;;
75038;SDS011;63609;49.992;14.512;2023-04-24T13:54:26;3.45;;;1.55;;
75038;SDS011;63609;49.992;14.512;2023-04-24T13:56:55;3.97;;;1.83;;
75038;SDS011;63609;49.992;14.512;2023-04-24T13:59:24;3.53;;;1.90;;
75038;SDS011;63609;49.992;14.512;2023-04-24T14:01:54;3.95;;;2.10;;
75038;SDS011;63609;49.992;14.512;2023-04-24T14:04:30;4.95;;;2.20;;
75038;SDS011;63609;49.992;14.512;2023-04-24T14:07:04;3.65;;;1.90;;
75038;SDS011;63609;49.992;14.512;2023-04-24T14:09:37;4.40;;;2.03;;
75038;SDS011;63609;49.992;14.512;2023-04-24T14:12:06;1.90;;;1.00;;
75038;SDS011;63609;49.992;14.512;2023-04-24T14:14:33;1.00;;;0.70;;
75038;SDS011;63609;49.992;14.512;2023-04-24T14:17:00;1.67;;;1.00;;
75038;SDS011;63609;49.992;14.512;2023-04-24T14:19:29;1.48;;;0.90;;
75038;SDS011;63609;49.992;14.512;2023-04-24T14:21:57;2.00;;;1.05;;
75038;SDS011;63609;49.992;14.512;2023-04-24T14:24:25;2.20;;;0.82;;
75038;SDS011;63609;49.992;14.512;2023-04-24T14:26:53;1.20;;;0.68;;
75038;SDS011;63609;49.992;14.512;2023-04-24T14:29:20;1.80;;;0.90;;
75038;SDS011;63609;49.992;14.512;2023-04-24T14:31:47;1.90;;;1.00;;
75038;SDS011;63609;49.992;14.512;2023-04-24T14:34:15;2.25;;;1.10;;
75038;SDS011;63609;49.992;14.512;2023-04-24T14:36:41;2.53;;;1.27;;
75038;SDS011;63609;49.992;14.512;2023-04-24T14:39:08;2.03;;;1.00;;
75038;SDS011;63609;49.992;14.512;2023-04-24T14:41:36;2.42;;;0.88;;
75038;SDS011;63609;49.992;14.512;2023-04-24T14:44:05;2.53;;;1.23;;
75038;SDS011;63609;49.992;14.512;2023-04-24T14:46:32;2.00;;;1.10;;
75038;SDS011;63609;49.992;14.512;2023-04-24T14:48:59;3.15;;;1.23;;
75038;SDS011;63609;49.992;14.512;2023-04-24T14:51:27;3.47;;;1.20;;
75038;SDS011;63609;49.992;14.512;2023-04-24T14:53:55;1.95;;;1.08;;
75038;SDS011;63609;49.992;14.512;2023-04-24T14:56:23;1.80;;;0.93;;